Time;durP1;ratioP1;P1;durP2;ratioP2;P2;SDS_P1;SDS_P2;PMS_P1;PMS_P2;Temp;Humidity;BMP_temperature;BMP_pressure;BME280_temperature;BME280_humidity;BME280_pressure;Samples;Min_cycle;Max_cycle;Signal;HPM_P1;HPM_P2
2022/09/09 00:01:50;;;;;;;10.10;9.20;;;14.80;99.90;;;;;;5024172;28;20532;-52
2022/09/09 00:04:27;;;;;;;11.00;8.47;;;14.70;99.90;;;;;;5020002;28;20478;-53
2022/09/09 00:07:03;;;;;;;12.13;8.67;;;14.70;99.90;;;;;;5021147;28;20458;-53
2022/09/09 00:09:32;;;;;;;9.83;8.93;;;14.70;99.90;;;;;;5022871;28;20459;-52
2022/09/09 00:12:05;;;;;;;13.60;8.93;;;14.70;99.90;;;;;;5019426;28;20460;-53
2022/09/09 00:14:41;;;;;;;9.90;8.90;;;14.70;99.90;;;;;;5022483;28;21007;-52
2022/09/09 00:17:13;;;;;;;9.30;8.40;;;14.70;99.90;;;;;;5022624;28;20546;-54
2022/09/09 00:19:50;;;;;;;9.27;8.50;;;14.60;99.90;;;;;;5025481;28;20463;-52
2022/09/09 00:22:19;;;;;;;10.63;8.43;;;14.60;99.90;;;;;;5023426;28;20479;-54
2022/09/09 00:24:47;;;;;;;10.03;9.13;;;14.60;99.90;;;;;;5027418;28;20482;-53
2022/09/09 00:27:21;;;;;;;9.97;9.00;;;14.50;99.90;;;;;;5018521;28;20456;-52
2022/09/09 00:29:55;;;;;;;8.77;7.93;;;14.50;99.90;;;;;;5025474;28;20455;-53
2022/09/09 00:32:23;;;;;;;9.10;7.77;;;14.50;99.90;;;;;;5021610;28;20462;-52
2022/09/09 00:34:54;;;;;;;8.43;7.63;;;14.50;99.90;;;;;;5026114;28;20482;-52
2022/09/09 00:37:22;;;;;;;7.40;6.73;;;14.40;99.90;;;;;;5025924;28;20454;-52
2022/09/09 00:39:51;;;;;;;16.20;7.30;;;14.40;99.90;;;;;;5027121;28;20470;-52
2022/09/09 00:42:24;;;;;;;11.50;7.40;;;14.40;99.90;;;;;;5021570;28;20482;-54
2022/09/09 00:44:58;;;;;;;7.93;7.20;;;14.40;99.90;;;;;;5026680;28;20493;-52
2022/09/09 00:47:42;;;;;;;10.23;7.10;;;14.40;99.90;;;;;;5022362;28;20458;-52
2022/09/09 00:50:30;;;;;;;6.40;5.90;;;14.40;99.90;;;;;;5028697;28;20454;-52
2022/09/09 00:53:06;;;;;;;7.03;6.43;;;14.30;99.90;;;;;;5021331;28;20455;-52
2022/09/09 00:55:45;;;;;;;7.97;6.87;;;14.30;99.90;;;;;;5023255;28;20486;-51
2022/09/09 00:58:12;;;;;;;6.50;6.00;;;14.20;99.90;;;;;;5020738;28;20486;-53
2022/09/09 01:00:44;;;;;;;7.20;6.60;;;14.20;99.90;;;;;;5021874;28;20467;-52
2022/09/09 01:03:23;;;;;;;8.40;7.33;;;14.20;99.90;;;;;;5018662;28;20484;-53
2022/09/09 01:05:59;;;;;;;10.83;7.40;;;14.10;99.90;;;;;;5024232;28;20458;-51
2022/09/09 01:08:55;;;;;;;7.80;7.10;;;14.10;99.90;;;;;;5026436;28;20454;-52
2022/09/09 01:11:24;;;;;;;8.47;7.50;;;14.00;99.90;;;;;;5023417;28;20469;-53
2022/09/09 01:13:59;;;;;;;9.17;6.80;;;14.00;99.90;;;;;;5021486;28;20856;-52
2022/09/09 01:16:30;;;;;;;7.63;6.97;;;14.00;99.90;;;;;;5021488;28;20478;-53
2022/09/09 01:19:00;;;;;;;16.60;6.90;;;14.00;99.90;;;;;;5024764;28;20520;-52
2022/09/09 01:21:37;;;;;;;10.00;6.70;;;14.00;99.90;;;;;;5022580;28;20957;-52
2022/09/09 01:24:22;;;;;;;6.97;6.37;;;14.00;99.90;;;;;;5016122;28;20488;-54
2022/09/09 01:26:55;;;;;;;7.10;6.40;;;13.90;99.90;;;;;;5022416;28;20557;-52
2022/09/09 01:29:23;;;;;;;10.00;6.67;;;13.90;99.90;;;;;;5019090;28;20469;-52
2022/09/09 01:31:55;;;;;;;7.00;6.30;;;13.90;99.90;;;;;;5019912;28;20470;-53
2022/09/09 01:34:24;;;;;;;6.97;6.37;;;13.90;99.90;;;;;;5020825;28;20483;-53
2022/09/09 01:36:57;;;;;;;7.27;6.20;;;13.90;99.90;;;;;;5025267;28;20501;-52
2022/09/09 01:39:24;;;;;;;11.70;5.73;;;13.80;99.90;;;;;;5021431;28;20886;-52
2022/09/09 01:41:52;;;;;;;7.17;6.47;;;13.80;99.90;;;;;;5020246;28;20959;-52
2022/09/09 01:44:20;;;;;;;11.83;6.33;;;13.70;99.90;;;;;;5021641;28;21007;-52
2022/09/09 01:46:47;;;;;;;7.20;6.40;;;13.70;99.90;;;;;;5026097;28;20459;-53
2022/09/09 01:49:14;;;;;;;7.00;6.30;;;13.80;99.90;;;;;;5022130;28;20458;-54
2022/09/09 01:51:44;;;;;;;6.97;6.40;;;13.70;99.90;;;;;;5020128;28;20470;-53
2022/09/09 01:54:11;;;;;;;7.73;6.97;;;13.70;99.90;;;;;;5024265;28;20486;-53
2022/09/09 01:56:47;;;;;;;7.23;6.43;;;13.70;99.90;;;;;;5021687;28;20454;-52
2022/09/09 01:59:31;;;;;;;10.30;6.63;;;13.70;99.90;;;;;;5017157;28;20457;-52
2022/09/09 02:02:10;;;;;;;7.63;7.00;;;13.70;99.90;;;;;;5021786;28;20462;-53
2022/09/09 02:04:39;;;;;;;7.20;6.57;;;13.70;99.90;;;;;;5023548;28;20505;-52
2022/09/09 02:07:21;;;;;;;7.10;6.43;;;13.70;99.90;;;;;;5022969;28;20463;-53
2022/09/09 02:09:52;;;;;;;6.27;5.77;;;13.70;99.90;;;;;;5026354;28;21023;-53
2022/09/09 02:12:24;;;;;;;6.97;6.37;;;13.70;99.90;;;;;;5021280;28;20459;-52
2022/09/09 02:15:00;;;;;;;8.67;6.87;;;13.70;99.90;;;;;;5023681;28;20572;-54
2022/09/09 02:17:29;;;;;;;8.10;6.67;;;13.70;99.90;;;;;;5022334;28;20450;-51
2022/09/09 02:20:05;;;;;;;13.33;6.30;;;13.70;99.90;;;;;;5020563;28;20455;-54
2022/09/09 02:22:34;;;;;;;8.13;6.87;;;13.60;99.90;;;;;;5019697;28;20477;-52
2022/09/09 02:25:03;;;;;;;7.50;6.67;;;13.70;99.90;;;;;;5020512;28;20511;-52
2022/09/09 02:27:30;;;;;;;8.90;6.90;;;13.60;99.90;;;;;;5021490;28;20474;-54
2022/09/09 02:30:01;;;;;;;8.47;7.53;;;13.60;99.90;;;;;;5027283;28;20456;-53
2022/09/09 02:32:32;;;;;;;7.73;6.80;;;13.60;99.90;;;;;;5023055;28;20944;-52
2022/09/09 02:35:02;;;;;;;8.90;6.70;;;13.60;99.90;;;;;;5022076;28;20486;-53
2022/09/09 02:37:35;;;;;;;9.40;7.20;;;13.60;99.90;;;;;;5029654;28;20462;-54
2022/09/09 02:40:02;;;;;;;7.90;7.20;;;13.60;99.90;;;;;;5029169;28;20462;-53
2022/09/09 02:42:29;;;;;;;8.20;7.50;;;13.60;99.90;;;;;;5025939;28;20505;-53
2022/09/09 02:44:55;;;;;;;7.13;6.53;;;13.60;99.90;;;;;;5023288;28;20493;-52
2022/09/09 02:47:29;;;;;;;8.00;6.87;;;13.60;99.90;;;;;;5027611;28;20542;-55
2022/09/09 02:50:06;;;;;;;7.60;6.90;;;13.60;99.90;;;;;;5025680;28;20984;-54
2022/09/09 02:52:43;;;;;;;17.73;7.27;;;13.70;99.90;;;;;;5025235;28;20458;-53
2022/09/09 02:55:17;;;;;;;6.90;6.40;;;13.70;99.90;;;;;;5031428;28;20481;-52
2022/09/09 02:57:47;;;;;;;14.80;6.67;;;13.70;99.90;;;;;;5024028;28;20460;-53
2022/09/09 03:00:15;;;;;;;8.03;7.23;;;13.60;99.90;;;;;;5022270;28;20510;-52
2022/09/09 03:02:45;;;;;;;6.33;5.93;;;13.60;99.90;;;;;;5025408;28;21101;-53
2022/09/09 03:05:12;;;;;;;13.43;6.20;;;13.60;99.90;;;;;;5024035;28;20481;-52
2022/09/09 03:07:39;;;;;;;7.97;7.23;;;13.60;99.90;;;;;;5025307;28;20490;-53
2022/09/09 03:10:07;;;;;;;8.43;7.63;;;13.60;99.90;;;;;;5030496;28;20863;-53
2022/09/09 03:12:34;;;;;;;13.00;6.77;;;13.50;99.90;;;;;;5024135;28;20487;-53
2022/09/09 03:15:01;;;;;;;8.60;6.20;;;13.50;99.90;;;;;;5025791;28;20483;-51
2022/09/09 03:17:27;;;;;;;6.63;5.87;;;13.50;99.90;;;;;;5026388;28;20459;-52
2022/09/09 03:19:57;;;;;;;6.13;5.63;;;13.50;99.90;;;;;;5028386;28;20454;-52
2022/09/09 03:22:25;;;;;;;8.20;6.63;;;13.50;99.90;;;;;;5024002;28;20459;-52
2022/09/09 03:24:51;;;;;;;10.70;7.27;;;13.50;99.90;;;;;;5022306;28;20808;-52
2022/09/09 03:27:19;;;;;;;8.20;7.57;;;13.50;99.90;;;;;;5023394;28;20458;-52
2022/09/09 03:29:46;;;;;;;8.97;6.70;;;13.50;99.90;;;;;;5029286;28;20485;-52
2022/09/09 03:32:12;;;;;;;6.90;6.20;;;13.50;99.90;;;;;;5021832;28;21244;-53
2022/09/09 03:34:40;;;;;;;6.77;6.20;;;13.50;99.90;;;;;;5026899;28;21877;-52
2022/09/09 03:37:08;;;;;;;6.27;5.70;;;13.50;99.90;;;;;;5021083;28;20509;-52
2022/09/09 03:39:34;;;;;;;8.60;6.17;;;13.40;99.90;;;;;;5025982;28;20470;-53
2022/09/09 03:42:03;;;;;;;10.40;6.23;;;13.40;99.90;;;;;;5024109;28;20486;-52
2022/09/09 03:44:30;;;;;;;7.67;6.97;;;13.40;99.90;;;;;;5019104;28;20514;-52
2022/09/09 03:47:00;;;;;;;8.60;6.00;;;13.30;99.90;;;;;;5023638;28;20929;-52
2022/09/09 03:49:28;;;;;;;7.50;6.77;;;13.30;99.90;;;;;;5027817;28;20513;-53
2022/09/09 03:51:56;;;;;;;6.40;5.87;;;13.30;99.90;;;;;;5024222;28;20562;-52
2022/09/09 03:54:24;;;;;;;8.00;6.10;;;13.20;99.90;;;;;;5021728;28;20574;-53
2022/09/09 03:56:50;;;;;;;7.00;6.40;;;13.30;99.90;;;;;;5022425;28;20494;-53
2022/09/09 03:59:17;;;;;;;6.77;6.27;;;13.20;99.90;;;;;;5024126;28;21030;-53
2022/09/09 04:01:45;;;;;;;7.13;6.53;;;13.20;99.90;;;;;;5021165;28;20555;-53
2022/09/09 04:04:12;;;;;;;6.57;6.00;;;13.20;99.90;;;;;;5026786;28;20486;-53
2022/09/09 04:06:38;;;;;;;6.77;6.10;;;13.20;99.90;;;;;;5020543;28;20560;-54
2022/09/09 04:09:05;;;;;;;7.47;6.70;;;13.20;99.90;;;;;;5028742;28;20498;-52
2022/09/09 04:11:33;;;;;;;7.53;6.70;;;13.20;99.90;;;;;;5021869;28;20735;-53
2022/09/09 04:14:00;;;;;;;8.40;7.10;;;13.20;99.90;;;;;;5025924;28;20976;-53
2022/09/09 04:16:27;;;;;;;7.33;6.73;;;13.20;99.90;;;;;;5021347;28;21028;-52
2022/09/09 04:18:53;;;;;;;8.10;6.77;;;13.20;99.90;;;;;;5024232;28;20495;-52
2022/09/09 04:21:21;;;;;;;7.33;6.60;;;13.10;99.90;;;;;;5023915;28;20470;-53
2022/09/09 04:23:47;;;;;;;7.23;6.63;;;13.10;99.90;;;;;;5023883;28;20483;-52
2022/09/09 04:26:14;;;;;;;13.10;7.53;;;13.20;99.90;;;;;;5023316;28;20455;-54
2022/09/09 04:28:42;;;;;;;7.77;7.07;;;13.10;99.90;;;;;;5023224;28;20524;-54
2022/09/09 04:31:11;;;;;;;8.03;7.23;;;13.10;99.90;;;;;;5019578;28;20500;-52
2022/09/09 04:33:38;;;;;;;7.50;6.90;;;13.20;99.90;;;;;;5024326;28;21003;-53
2022/09/09 04:36:05;;;;;;;6.87;6.17;;;13.20;99.90;;;;;;5020690;28;20988;-53
2022/09/09 04:38:31;;;;;;;8.80;6.70;;;13.20;99.90;;;;;;5025327;28;20466;-53
2022/09/09 04:40:58;;;;;;;7.83;7.13;;;13.10;99.90;;;;;;5021115;28;20503;-52
2022/09/09 04:43:27;;;;;;;9.00;8.10;;;13.10;99.90;;;;;;5031248;28;20917;-54
2022/09/09 04:45:55;;;;;;;7.83;6.90;;;13.10;99.90;;;;;;5024943;28;20463;-53
2022/09/09 04:48:22;;;;;;;17.50;7.33;;;13.00;99.90;;;;;;5021550;28;20464;-53
2022/09/09 04:50:56;;;;;;;9.23;5.93;;;13.00;99.90;;;;;;5022761;28;20491;-53
2022/09/09 04:53:23;;;;;;;8.97;7.07;;;13.00;99.90;;;;;;5028443;28;20602;-53
2022/09/09 04:55:49;;;;;;;7.60;6.80;;;13.00;99.90;;;;;;5026263;28;20466;-54
2022/09/09 04:58:16;;;;;;;7.47;6.87;;;13.10;99.90;;;;;;5026516;28;20467;-52
2022/09/09 05:00:42;;;;;;;7.47;6.73;;;13.10;99.90;;;;;;5018421;28;20498;-52
2022/09/09 05:03:10;;;;;;;13.47;6.97;;;13.10;99.90;;;;;;5023112;28;20521;-52
2022/09/09 05:05:37;;;;;;;8.53;7.03;;;13.10;99.90;;;;;;5022887;28;20467;-52
2022/09/09 05:08:04;;;;;;;7.00;6.40;;;13.10;99.90;;;;;;5024023;28;20977;-52
2022/09/09 05:10:31;;;;;;;6.53;6.03;;;13.10;99.90;;;;;;5017040;28;20467;-54
2022/09/09 05:12:58;;;;;;;7.97;7.23;;;13.10;99.90;;;;;;5023780;28;20897;-53
2022/09/09 05:15:24;;;;;;;6.40;5.80;;;13.10;99.90;;;;;;5020968;28;21174;-53
2022/09/09 05:17:52;;;;;;;6.57;6.07;;;13.20;99.90;;;;;;5023011;28;20922;-54
2022/09/09 05:20:21;;;;;;;5.60;5.20;;;13.20;99.90;;;;;;5023257;28;20466;-53
2022/09/09 05:22:47;;;;;;;7.23;6.53;;;13.20;99.90;;;;;;5025945;28;20466;-52
2022/09/09 05:25:14;;;;;;;9.40;6.63;;;13.30;99.90;;;;;;5024668;28;20514;-53
2022/09/09 05:27:40;;;;;;;11.90;6.13;;;13.30;99.90;;;;;;5024361;28;20983;-53
2022/09/09 05:30:08;;;;;;;6.07;5.47;;;13.30;99.90;;;;;;5018705;28;20944;-53
2022/09/09 05:32:35;;;;;;;7.47;6.73;;;13.30;99.90;;;;;;5020548;28;20521;-55
2022/09/09 05:35:02;;;;;;;8.07;6.30;;;13.40;99.90;;;;;;5020440;28;20479;-55
2022/09/09 05:37:31;;;;;;;5.90;5.40;;;13.40;99.90;;;;;;5024489;28;20525;-54
2022/09/09 05:39:58;;;;;;;9.57;5.50;;;13.50;99.90;;;;;;5025391;28;20459;-53
2022/09/09 05:42:25;;;;;;;6.30;5.70;;;13.50;99.90;;;;;;5016930;28;20507;-52
2022/09/09 05:44:54;;;;;;;8.00;5.60;;;13.60;99.90;;;;;;5020912;28;20536;-52
2022/09/09 05:47:20;;;;;;;6.10;5.50;;;13.70;99.90;;;;;;5018601;28;20953;-52
2022/09/09 05:49:47;;;;;;;7.40;5.47;;;13.70;99.90;;;;;;5020715;28;20460;-53
2022/09/09 05:52:13;;;;;;;5.20;4.70;;;13.80;99.90;;;;;;5020768;28;20482;-51
2022/09/09 05:54:43;;;;;;;7.50;6.80;;;13.90;99.90;;;;;;5021513;28;20550;-52
2022/09/09 05:57:09;;;;;;;10.00;7.20;;;13.90;99.90;;;;;;5025980;28;20961;-52
2022/09/09 05:59:36;;;;;;;7.10;6.40;;;14.00;99.90;;;;;;5027135;28;22503;-51
2022/09/09 06:02:02;;;;;;;9.53;5.97;;;14.00;99.90;;;;;;5015957;28;20495;-52
2022/09/09 06:04:30;;;;;;;6.73;6.03;;;14.00;99.90;;;;;;5025668;28;20907;-51
2022/09/09 06:06:57;;;;;;;6.00;5.50;;;14.10;99.90;;;;;;5026209;28;20470;-51
2022/09/09 06:09:23;;;;;;;6.27;5.67;;;14.10;99.90;;;;;;5024329;28;20524;-53
2022/09/09 06:11:51;;;;;;;6.33;5.47;;;14.10;99.90;;;;;;5024816;28;20498;-51
2022/09/09 06:14:18;;;;;;;6.40;5.37;;;14.20;99.90;;;;;;5030385;28;20506;-51
2022/09/09 06:16:45;;;;;;;6.37;5.77;;;14.30;99.90;;;;;;5032612;28;20472;-53
2022/09/09 06:19:12;;;;;;;8.57;5.93;;;14.30;99.90;;;;;;5029469;28;20499;-53
2022/09/09 06:21:40;;;;;;;5.63;5.23;;;14.30;99.90;;;;;;5029480;28;20502;-51
2022/09/09 06:24:08;;;;;;;6.80;5.97;;;14.40;99.90;;;;;;5029887;28;20483;-51
2022/09/09 06:26:36;;;;;;;6.13;5.63;;;14.40;99.90;;;;;;5025483;28;20474;-52
2022/09/09 06:29:05;;;;;;;9.07;5.77;;;14.40;99.90;;;;;;5021542;28;20512;-51
2022/09/09 06:31:34;;;;;;;8.63;5.97;;;14.40;99.90;;;;;;5019685;28;21046;-51
2022/09/09 06:34:01;;;;;;;9.77;6.07;;;14.40;99.90;;;;;;5024672;28;20474;-52
2022/09/09 06:36:30;;;;;;;5.73;5.20;;;14.50;99.90;;;;;;5022508;28;20556;-52
2022/09/09 06:38:57;;;;;;;9.37;5.07;;;14.50;99.90;;;;;;5019133;28;20552;-54
2022/09/09 06:41:26;;;;;;;4.93;4.50;;;14.60;99.90;;;;;;5018737;28;20529;-52
2022/09/09 06:43:52;;;;;;;5.07;4.57;;;14.70;99.90;;;;;;5023501;28;20501;-51
2022/09/09 06:46:22;;;;;;;5.57;4.73;;;14.70;99.90;;;;;;5026752;28;20494;-53
2022/09/09 06:48:49;;;;;;;8.60;5.43;;;14.80;99.90;;;;;;5029888;28;20803;-53
2022/09/09 06:51:17;;;;;;;5.80;4.30;;;14.80;99.90;;;;;;5024280;28;20472;-53
2022/09/09 06:53:45;;;;;;;8.90;4.77;;;14.90;99.90;;;;;;5027100;28;20536;-52
2022/09/09 06:56:22;;;;;;;6.30;4.90;;;14.90;99.90;;;;;;5026293;28;20583;-53
2022/09/09 06:58:50;;;;;;;5.43;4.93;;;15.00;99.90;;;;;;5022629;28;21051;-52
2022/09/09 07:01:19;;;;;;;5.70;4.50;;;15.10;99.90;;;;;;5015450;28;21010;-52
2022/09/09 07:03:49;;;;;;;6.83;4.40;;;15.10;99.90;;;;;;5024768;28;20578;-53
2022/09/09 07:06:19;;;;;;;5.80;4.40;;;15.20;99.90;;;;;;5026356;28;20463;-52
2022/09/09 07:08:50;;;;;;;6.87;4.43;;;15.30;99.90;;;;;;5031513;28;20443;-53
2022/09/09 07:11:17;;;;;;;7.53;4.67;;;15.40;99.90;;;;;;5020024;28;20463;-54
2022/09/09 07:13:43;;;;;;;7.23;4.70;;;15.40;99.90;;;;;;5026536;28;21015;-53
2022/09/09 07:16:12;;;;;;;5.50;4.30;;;15.50;99.90;;;;;;5024074;28;21126;-51
2022/09/09 07:18:40;;;;;;;5.77;4.17;;;15.50;99.90;;;;;;5033590;28;20498;-53
2022/09/09 07:21:11;;;;;;;5.73;3.27;;;15.60;99.90;;;;;;5026395;28;20461;-52
2022/09/09 07:23:38;;;;;;;7.03;3.63;;;15.70;99.90;;;;;;5026808;28;20991;-54
2022/09/09 07:26:09;;;;;;;7.00;3.17;;;15.80;99.90;;;;;;5026718;28;20463;-52
2022/09/09 07:28:35;;;;;;;5.33;3.20;;;15.90;99.90;;;;;;5027990;28;20493;-52
2022/09/09 07:31:04;;;;;;;4.13;3.27;;;15.90;99.90;;;;;;5018888;28;20495;-52
2022/09/09 07:33:31;;;;;;;4.97;3.63;;;16.00;99.90;;;;;;5024098;28;20486;-52
2022/09/09 07:36:04;;;;;;;4.87;3.20;;;16.00;99.90;;;;;;5026133;28;21263;-52
2022/09/09 07:38:32;;;;;;;3.23;3.00;;;16.10;20.30;;;;;;5022310;28;20501;-52
2022/09/09 07:41:05;;;;;;;3.87;2.77;;;16.10;28.50;;;;;;5022069;28;20465;-53
2022/09/09 07:43:33;;;;;;;5.57;3.80;;;16.20;44.80;;;;;;5029719;28;20560;-52
2022/09/09 07:46:01;;;;;;;4.83;2.77;;;16.20;55.90;;;;;;5026450;28;20483;-52
2022/09/09 07:48:27;;;;;;;4.70;3.07;;;16.30;82.60;;;;;;5024718;28;20520;-52
2022/09/09 07:51:05;;;;;;;7.03;2.97;;;16.40;82.80;;;;;;5031212;28;20589;-52
2022/09/09 07:53:34;;;;;;;3.63;3.03;;;16.50;99.90;;;;;;5026889;28;20483;-53
2022/09/09 07:56:04;;;;;;;5.93;3.30;;;16.50;99.90;;;;;;5022936;28;20459;-53
2022/09/09 07:58:31;;;;;;;5.87;2.63;;;16.50;99.90;;;;;;5024891;28;20454;-52
2022/09/09 08:00:58;;;;;;;5.10;3.67;;;16.50;99.90;;;;;;5029479;28;20491;-51
2022/09/09 08:03:25;;;;;;;2.50;2.30;;;16.50;99.90;;;;;;5031174;28;20481;-52
2022/09/09 08:05:51;;;;;;;2.60;1.90;;;16.60;99.90;;;;;;5030245;28;20506;-52
2022/09/09 08:08:18;;;;;;;7.77;2.60;;;16.60;99.90;;;;;;5026019;28;20466;-52
2022/09/09 08:10:46;;;;;;;5.33;2.83;;;16.60;99.90;;;;;;5032092;28;20478;-52
2022/09/09 08:13:13;;;;;;;3.63;2.40;;;16.70;99.90;;;;;;5029432;28;20462;-53
2022/09/09 08:15:41;;;;;;;7.40;2.90;;;16.80;99.90;;;;;;5028533;28;20925;-51
2022/09/09 08:18:08;;;;;;;4.93;2.50;;;16.80;99.90;;;;;;5030743;28;20463;-51
2022/09/09 08:20:37;;;;;;;6.83;2.23;;;16.90;99.90;;;;;;5021968;28;20462;-52
2022/09/09 08:23:04;;;;;;;4.53;2.23;;;17.00;99.90;;;;;;5030010;28;20988;-52
2022/09/09 08:25:31;;;;;;;3.53;2.60;;;17.10;99.90;;;;;;5029151;28;20490;-51
2022/09/09 08:27:59;;;;;;;2.90;2.37;;;17.10;99.90;;;;;;5028538;28;20541;-52
2022/09/09 08:30:26;;;;;;;5.33;2.37;;;17.30;99.90;;;;;;5023932;28;20467;-52
2022/09/09 08:32:53;;;;;;;4.40;2.10;;;17.40;99.90;;;;;;5030978;28;20539;-52
2022/09/09 08:35:20;;;;;;;4.93;2.63;;;17.40;99.90;;;;;;5023770;28;20479;-52
2022/09/09 08:37:46;;;;;;;4.13;2.33;;;17.60;99.90;;;;;;5014931;28;20464;-52
2022/09/09 08:40:24;;;;;;;3.73;1.87;;;17.70;99.90;;;;;;5025866;28;20495;-52
2022/09/09 08:42:53;;;;;;;2.33;1.73;;;17.80;25.80;;;;;;5028491;28;20497;-52
2022/09/09 08:45:28;;;;;;;3.83;2.13;;;17.80;76.10;;;;;;5025655;28;20522;-53
2022/09/09 08:48:09;;;;;;;3.17;2.17;;;17.80;29.00;;;;;;5026906;28;20458;-53
2022/09/09 08:50:38;;;;;;;9.70;2.20;;;17.90;42.30;;;;;;5027307;28;20559;-52
2022/09/09 08:53:10;;;;;;;2.70;1.90;;;18.00;33.40;;;;;;5022905;28;20465;-52
2022/09/09 08:55:42;;;;;;;3.90;1.70;;;18.20;30.80;;;;;;5027645;28;20501;-53
2022/09/09 08:58:14;;;;;;;3.20;1.57;;;18.40;83.40;;;;;;5027566;28;20992;-52
2022/09/09 09:01:06;;;;;;;6.20;2.53;;;18.40;66.80;;;;;;5028080;28;20550;-52
2022/09/09 09:03:43;;;;;;;1.80;1.60;;;18.40;56.70;;;;;;5019570;28;21026;-52
2022/09/09 09:06:37;;;;;;;2.90;1.87;;;18.30;52.10;;;;;;5029724;28;20506;-52
2022/09/09 09:09:09;;;;;;;5.13;1.80;;;18.30;54.90;;;;;;5030667;28;20490;-52
2022/09/09 09:11:38;;;;;;;4.33;1.83;;;18.30;61.10;;;;;;5025567;28;20499;-52
2022/09/09 09:14:10;;;;;;;3.27;1.70;;;18.30;34.00;;;;;;5016867;28;20504;-53
2022/09/09 09:16:43;;;;;;;5.23;2.30;;;18.30;42.40;;;;;;5027367;28;20459;-52
2022/09/09 09:19:15;;;;;;;3.73;1.77;;;18.30;43.20;;;;;;5028533;28;20469;-52
2022/09/09 09:21:44;;;;;;;2.70;2.20;;;18.30;51.10;;;;;;5030531;28;20465;-52
2022/09/09 09:24:18;;;;;;;5.93;2.00;;;18.20;55.10;;;;;;5028432;28;20482;-52
2022/09/09 09:26:45;;;;;;;2.17;1.90;;;18.20;51.30;;;;;;5030119;28;20503;-52
2022/09/09 09:29:14;;;;;;;3.73;1.97;;;18.20;48.30;;;;;;5026622;28;20494;-53
2022/09/09 09:31:47;;;;;;;5.53;2.00;;;18.30;36.30;;;;;;5020157;28;20456;-51
2022/09/09 09:34:14;;;;;;;2.23;2.03;;;18.30;26.30;;;;;;5025274;28;20573;-52
2022/09/09 09:36:45;;;;;;;4.60;1.77;;;18.40;40.00;;;;;;5028335;28;20494;-54
2022/09/09 09:39:24;;;;;;;4.27;2.10;;;18.40;50.50;;;;;;5024393;28;20508;-53
2022/09/09 09:41:51;;;;;;;7.70;2.17;;;18.50;56.50;;;;;;5018855;28;20461;-53
2022/09/09 09:44:25;;;;;;;9.03;2.43;;;18.50;58.40;;;;;;5029232;28;20522;-52
2022/09/09 09:46:53;;;;;;;3.23;1.83;;;18.70;68.50;;;;;;5021617;28;20462;-53
2022/09/09 09:49:20;;;;;;;4.30;2.57;;;18.80;92.00;;;;;;5028865;28;20667;-52
2022/09/09 09:51:47;;;;;;;7.80;2.10;;;19.10;99.90;;;;;;5030683;28;20513;-52
2022/09/09 09:54:23;;;;;;;2.70;1.90;;;19.30;99.90;;;;;;5031297;28;20552;-51
2022/09/09 09:56:50;;;;;;;9.97;2.07;;;19.50;99.90;;;;;;5020114;28;20458;-53
2022/09/09 09:59:33;;;;;;;5.40;1.73;;;19.80;99.90;;;;;;5020140;28;20470;-53
2022/09/09 10:02:16;;;;;;;6.50;1.80;;;19.80;99.90;;;;;;5020082;28;20456;-53
2022/09/09 10:04:42;;;;;;;3.10;1.30;;;19.90;99.90;;;;;;5016914;28;20487;-52
2022/09/09 10:07:12;;;;;;;4.63;2.10;;;19.90;99.90;;;;;;5019079;28;20494;-52
2022/09/09 10:09:39;;;;;;;8.27;2.40;;;20.00;99.90;;;;;;5024459;28;21075;-52
2022/09/09 10:12:20;;;;;;;6.20;2.33;;;20.10;99.90;;;;;;5028994;28;20874;-53
2022/09/09 10:14:55;;;;;;;3.27;1.80;;;20.10;99.90;;;;;;5020109;28;20483;-52
2022/09/09 10:17:31;;;;;;;2.40;1.77;;;20.10;99.90;;;;;;5024973;28;20462;-53
2022/09/09 10:20:11;;;;;;;2.60;1.63;;;20.30;99.90;;;;;;5027229;28;20482;-52
2022/09/09 10:22:45;;;;;;;2.00;1.60;;;20.40;99.90;;;;;;5019655;28;22353;-52
2022/09/09 10:25:35;;;;;;;3.10;1.70;;;20.50;99.90;;;;;;5015309;28;20488;-51
2022/09/09 10:28:25;;;;;;;2.50;1.80;;;20.40;99.90;;;;;;5020281;28;20459;-51
2022/09/09 10:31:03;;;;;;;4.73;1.90;;;20.20;99.90;;;;;;5021706;28;20490;-52
2022/09/09 10:33:37;;;;;;;8.13;1.67;;;20.20;99.90;;;;;;5025417;28;21206;-52
2022/09/09 10:36:13;;;;;;;3.50;1.70;;;20.30;99.90;;;;;;5024398;28;20479;-57
2022/09/09 10:38:43;;;;;;;7.97;2.50;;;20.50;99.90;;;;;;5022028;28;21032;-51
2022/09/09 10:41:18;;;;;;;3.43;1.30;;;20.70;99.90;;;;;;5014573;28;20467;-52
2022/09/09 10:44:02;;;;;;;4.57;1.97;;;20.70;99.90;;;;;;5024581;28;20490;-53
2022/09/09 10:46:38;;;;;;;4.60;1.40;;;20.80;98.60;;;;;;5025565;28;21074;-54
2022/09/09 10:49:19;;;;;;;6.70;1.90;;;21.00;24.30;;;;;;5021851;28;20457;-52
2022/09/09 10:51:56;;;;;;;3.97;1.40;;;21.00;99.90;;;;;;5021533;28;20885;-52
2022/09/09 10:54:44;;;;;;;3.90;2.00;;;21.00;99.90;;;;;;5029719;28;20946;-51
2022/09/09 10:57:17;;;;;;;3.33;1.80;;;21.20;99.90;;;;;;5021757;28;20884;-51
2022/09/09 10:59:49;;;;;;;4.47;1.23;;;21.60;38.90;;;;;;5018390;28;20501;-52
2022/09/09 11:02:22;;;;;;;3.13;1.80;;;21.90;61.60;;;;;;5020042;28;20486;-51
2022/09/09 11:04:55;;;;;;;3.00;1.10;;;21.70;43.40;;;;;;5023384;28;20525;-51
2022/09/09 11:07:30;;;;;;;4.90;1.40;;;21.60;29.40;;;;;;5030846;28;20463;-54
2022/09/09 11:10:03;;;;;;;2.13;1.40;;;21.40;45.60;;;;;;5022620;28;20960;-53
2022/09/09 11:12:31;;;;;;;5.13;1.37;;;21.40;40.30;;;;;;5022092;28;20545;-51
2022/09/09 11:15:05;;;;;;;3.50;1.43;;;21.30;42.20;;;;;;5020364;28;20509;-53
2022/09/09 11:17:37;;;;;;;5.10;1.20;;;21.40;99.90;;;;;;5029502;28;20466;-53
2022/09/09 11:20:07;;;;;;;4.87;1.50;;;21.50;99.90;;;;;;5030134;28;20925;-52
2022/09/09 11:22:38;;;;;;;6.80;1.43;;;21.30;32.80;;;;;;5029165;28;20546;-51
2022/09/09 11:25:09;;;;;;;6.80;1.67;;;21.30;48.40;;;;;;5028663;28;20569;-51
2022/09/09 11:27:44;;;;;;;3.53;1.30;;;21.30;38.80;;;;;;5024296;28;21034;-53
2022/09/09 11:30:24;;;;;;;2.00;1.30;;;21.50;57.50;;;;;;5031863;28;20458;-51
2022/09/09 11:33:13;;;;;;;2.43;1.03;;;21.60;36.20;;;;;;5032425;28;20480;-52
2022/09/09 11:35:56;;;;;;;2.93;1.10;;;21.70;63.90;;;;;;5028013;28;20486;-51
2022/09/09 11:38:27;;;;;;;3.13;1.03;;;21.70;66.30;;;;;;5026513;28;20949;-52
2022/09/09 11:41:00;;;;;;;3.77;1.10;;;21.60;72.30;;;;;;5023053;28;20902;-52
2022/09/09 11:43:32;;;;;;;3.20;1.33;;;21.40;64.90;;;;;;5015233;28;20513;-52
2022/09/09 11:46:02;;;;;;;5.07;1.07;;;21.50;64.30;;;;;;5012069;23;21001;-51
2022/09/09 11:48:37;;;;;;;3.40;1.60;;;21.60;87.10;;;;;;4992023;28;20523;-50
2022/09/09 11:51:08;;;;;;;1.17;0.90;;;21.70;81.10;;;;;;4993504;28;20461;-51
2022/09/09 11:53:35;;;;;;;5.10;1.47;;;21.80;88.70;;;;;;4992134;28;20537;-51
2022/09/09 11:56:05;;;;;;;3.43;1.30;;;21.80;99.80;;;;;;4996164;28;20484;-51
2022/09/09 11:58:38;;;;;;;4.40;1.20;;;21.80;91.40;;;;;;4985010;28;20475;-51
2022/09/09 12:01:15;;;;;;;2.93;1.20;;;21.80;97.20;;;;;;4982255;28;20981;-52
2022/09/09 12:03:46;;;;;;;3.07;1.47;;;21.80;99.90;;;;;;4991666;28;20484;-51
2022/09/09 12:06:19;;;;;;;2.30;0.90;;;21.90;93.20;;;;;;4989445;28;20488;-51
2022/09/09 12:08:51;;;;;;;2.20;1.30;;;22.00;99.90;;;;;;4982078;28;20538;-50
2022/09/09 12:11:26;;;;;;;2.70;1.23;;;22.00;99.90;;;;;;4978888;28;20464;-51
2022/09/09 12:13:55;;;;;;;7.03;1.20;;;22.00;99.90;;;;;;4991750;28;20919;-51
2022/09/09 12:16:32;;;;;;;2.00;1.20;;;22.00;99.90;;;;;;4991204;28;20480;-51
2022/09/09 12:19:16;;;;;;;3.03;1.00;;;21.90;99.90;;;;;;4987269;28;20821;-51
2022/09/09 12:21:52;;;;;;;1.13;0.97;;;22.00;94.20;;;;;;4979387;28;20851;-50
2022/09/09 12:24:26;;;;;;;3.13;1.50;;;22.10;94.60;;;;;;4989111;28;20475;-51
2022/09/09 12:26:59;;;;;;;5.30;1.20;;;22.30;99.90;;;;;;4981068;28;20609;-51
2022/09/09 12:29:33;;;;;;;2.43;1.33;;;22.40;99.90;;;;;;4978893;28;20468;-51
2022/09/09 12:32:04;;;;;;;4.10;1.27;;;22.30;99.90;;;;;;4982836;28;20475;-51
2022/09/09 12:34:38;;;;;;;3.03;1.20;;;22.30;99.90;;;;;;4988934;28;20489;-51
2022/09/09 12:37:18;;;;;;;4.07;0.90;;;22.10;99.90;;;;;;4986800;28;20492;-51
2022/09/09 12:39:49;;;;;;;6.40;0.90;;;22.10;99.90;;;;;;4977174;28;20471;-51
2022/09/09 12:42:17;;;;;;;1.20;0.97;;;22.10;99.90;;;;;;4987813;28;20823;-51
2022/09/09 12:44:52;;;;;;;2.90;1.00;;;22.00;99.90;;;;;;4991678;28;20499;-52
2022/09/09 12:47:21;;;;;;;2.37;1.00;;;21.90;99.90;;;;;;4983799;28;20578;-51
2022/09/09 12:49:49;;;;;;;1.60;0.90;;;22.00;99.90;;;;;;4986906;28;20464;-51
2022/09/09 12:52:24;;;;;;;2.03;1.10;;;22.10;99.90;;;;;;5000507;28;20542;-51
2022/09/09 12:54:53;;;;;;;7.20;1.03;;;22.20;99.90;;;;;;4984808;28;20466;-51
2022/09/09 12:57:24;;;;;;;3.90;1.20;;;22.30;99.90;;;;;;4983535;28;20467;-52
2022/09/09 12:59:51;;;;;;;4.67;1.47;;;22.40;99.90;;;;;;4988785;28;20457;-52
2022/09/09 13:02:21;;;;;;;1.33;0.80;;;22.60;99.90;;;;;;4980132;28;20472;-51
2022/09/09 13:04:48;;;;;;;2.30;1.03;;;22.60;99.90;;;;;;4984954;28;20488;-50